Аэропорт: Гумрак. Волгоград

ICAO: URWW

METAR:
2019-12-12 10:00:00
URWW 121000Z 09004MPS 2500 BR OVC002 M00/M01 Q1023 R06/320046 TEMPO 0200 FZFG RMK OBST OBSC
METAR:
2019-12-12 07:57:00
TAF URWW 120757Z 1209/1218 08003G08MPS 0300 FZFG OVC002 TEMPO 1209/1218 03003G08MPS 3100 -FZDZ BR OVC003